Time;durP1;ratioP1;P1;durP2;ratioP2;P2;SDS_P1;SDS_P2;PMS_P1;PMS_P2;Temp;Humidity;BMP_temperature;BMP_pressure;BME280_temperature;BME280_humidity;BME280_pressure;Samples;Min_cycle;Max_cycle;Signal;HPM_P1;HPM_P2
2023/03/18 00:01:08;;;;;;;6.40;3.00;;;;;;;24.64;32.64;100110.28;4450076;32;33822;-59
2023/03/18 00:03:36;;;;;;;6.35;3.60;;;;;;;24.63;32.69;100108.63;4438945;32;33882;-59
2023/03/18 00:06:05;;;;;;;5.65;3.15;;;;;;;24.61;32.69;100104.44;4452871;32;33057;-55
2023/03/18 00:08:32;;;;;;;6.25;3.25;;;;;;;24.58;32.71;100102.19;4452867;32;34435;-59
2023/03/18 00:11:00;;;;;;;5.90;3.37;;;;;;;24.57;32.77;100100.47;4438999;32;33920;-58
2023/03/18 00:13:28;;;;;;;6.75;3.50;;;;;;;24.57;32.80;100095.88;4453098;32;33898;-55
2023/03/18 00:15:55;;;;;;;6.07;3.00;;;;;;;24.55;32.77;100089.81;4452936;32;34436;-57
2023/03/18 00:18:23;;;;;;;5.43;3.20;;;;;;;24.54;32.77;100085.44;4452744;32;34608;-59
2023/03/18 00:20:51;;;;;;;12.23;3.50;;;;;;;24.52;32.81;100090.25;4452587;32;34118;-58
2023/03/18 00:23:18;;;;;;;4.45;2.83;;;;;;;24.51;32.91;100085.03;4452618;32;33570;-58
2023/03/18 00:25:46;;;;;;;6.53;3.35;;;;;;;24.50;32.98;100084.22;4452667;32;33162;-59
2023/03/18 00:28:14;;;;;;;11.35;3.25;;;;;;;24.48;32.96;100083.63;4438430;32;34054;-60
2023/03/18 00:30:46;;;;;;;5.03;3.15;;;;;;;24.46;33.03;100083.00;4438899;32;34751;-58
2023/03/18 00:33:14;;;;;;;5.85;3.30;;;;;;;24.45;33.08;100092.25;4452761;32;33933;-58
2023/03/18 00:35:41;;;;;;;5.60;2.67;;;;;;;24.43;33.09;100081.56;4438492;32;32627;-59
2023/03/18 00:38:14;;;;;;;7.00;3.05;;;;;;;24.42;33.19;100082.59;4452666;32;34649;-56
2023/03/18 00:40:51;;;;;;;4.93;3.08;;;;;;;24.39;33.19;100085.81;4452492;32;34781;-58
2023/03/18 00:43:21;;;;;;;6.75;3.20;;;;;;;24.39;33.20;100083.06;4452446;32;33599;-59
2023/03/18 00:45:49;;;;;;;12.45;3.40;;;;;;;24.38;33.24;100088.72;4439128;32;33444;-57
2023/03/18 00:48:16;;;;;;;8.07;3.40;;;;;;;24.37;33.31;100076.16;4438254;32;34680;-56
2023/03/18 00:50:44;;;;;;;14.73;3.10;;;;;;;24.35;33.35;100078.25;4452083;32;34724;-55
2023/03/18 00:53:13;;;;;;;4.47;2.78;;;;;;;24.34;33.34;100076.56;4452225;32;34508;-59
2023/03/18 00:55:41;;;;;;;5.15;2.78;;;;;;;24.33;33.33;100080.38;4452714;32;33334;-58
2023/03/18 00:58:09;;;;;;;4.30;2.62;;;;;;;24.30;33.38;100081.66;4452616;32;33857;-59
2023/03/18 01:00:40;;;;;;;5.28;3.25;;;;;;;24.30;33.42;100072.66;4453492;32;33993;-59
2023/03/18 01:03:07;;;;;;;8.85;2.97;;;;;;;24.29;33.41;100073.69;4468076;32;33342;-59
2023/03/18 01:05:37;;;;;;;5.75;2.83;;;;;;;24.28;33.48;100072.84;4467853;32;33576;-59
2023/03/18 01:08:04;;;;;;;5.28;2.75;;;;;;;24.26;33.50;100066.81;4454184;32;33637;-59
2023/03/18 01:10:32;;;;;;;6.28;2.90;;;;;;;24.26;33.52;100064.09;4453522;32;34124;-59
2023/03/18 01:13:00;;;;;;;5.15;2.90;;;;;;;24.25;33.51;100067.00;4453492;32;32957;-58
2023/03/18 01:15:28;;;;;;;6.32;3.08;;;;;;;24.23;33.52;100056.34;4453981;32;34811;-57
2023/03/18 01:17:57;;;;;;;5.20;3.00;;;;;;;24.22;33.59;100060.13;4467876;32;34009;-60
2023/03/18 01:20:24;;;;;;;6.62;3.00;;;;;;;24.21;33.63;100058.47;4467881;32;33733;-58
2023/03/18 01:22:52;;;;;;;5.47;2.87;;;;;;;24.19;33.64;100053.22;4467883;32;33731;-59
2023/03/18 01:25:20;;;;;;;5.47;2.97;;;;;;;24.18;33.62;100054.28;4467762;32;33307;-57
2023/03/18 01:27:48;;;;;;;10.15;2.90;;;;;;;24.18;33.69;100050.75;4467806;32;33669;-58
2023/03/18 01:30:17;;;;;;;7.18;2.80;;;;;;;24.16;33.69;100037.34;4467491;32;34714;-56
2023/03/18 01:32:45;;;;;;;5.45;3.10;;;;;;;24.17;33.71;100032.72;4467364;32;33642;-60
2023/03/18 01:35:13;;;;;;;5.40;3.17;;;;;;;24.15;33.75;100035.69;4453577;32;33416;-58
2023/03/18 01:37:42;;;;;;;9.65;3.05;;;;;;;24.14;33.79;100030.44;4467538;32;33851;-60
2023/03/18 01:40:12;;;;;;;4.90;2.62;;;;;;;24.14;33.82;100028.53;4467355;32;34779;-57
2023/03/18 01:42:40;;;;;;;5.57;2.90;;;;;;;24.12;33.81;100030.66;4467581;32;33585;-58
2023/03/18 01:45:22;;;;;;;4.75;2.78;;;;;;;24.11;33.84;100029.00;4453415;32;32379;-58
2023/03/18 01:47:50;;;;;;;4.68;3.05;;;;;;;24.10;33.90;100026.50;4467452;32;33481;-57
2023/03/18 01:50:27;;;;;;;5.65;2.90;;;;;;;24.09;33.95;100027.56;4467253;32;34704;-59
2023/03/18 01:53:22;;;;;;;5.82;3.00;;;;;;;24.06;34.01;100017.94;4452969;32;33956;-57
2023/03/18 01:55:51;;;;;;;5.78;2.70;;;;;;;24.05;34.01;100024.44;4464670;32;32864;-58
2023/03/18 01:58:23;;;;;;;5.30;2.92;;;;;;;24.04;34.01;100014.59;4440387;32;34004;-58
2023/03/18 02:01:01;;;;;;;5.37;2.47;;;;;;;24.05;34.04;100018.97;4441068;32;34677;-57
2023/03/18 02:03:29;;;;;;;10.95;3.00;;;;;;;24.04;34.06;100024.66;4453440;32;33488;-59
2023/03/18 02:05:56;;;;;;;5.50;2.87;;;;;;;24.01;34.07;100020.50;4469666;32;33416;-59
2023/03/18 02:08:24;;;;;;;5.53;2.40;;;;;;;24.02;34.08;100022.19;4469388;32;34396;-58
2023/03/18 02:10:52;;;;;;;5.18;2.78;;;;;;;24.00;34.09;100026.19;4442287;32;33847;-59
2023/03/18 02:13:20;;;;;;;5.82;2.50;;;;;;;23.99;34.14;100024.50;4455456;32;34598;-59
2023/03/18 02:15:52;;;;;;;5.32;2.83;;;;;;;23.97;34.16;100016.56;4442640;32;33492;-59
2023/03/18 02:18:24;;;;;;;6.18;2.95;;;;;;;23.98;34.18;100020.97;4442869;32;33871;-58
2023/03/18 02:21:03;;;;;;;5.45;2.70;;;;;;;23.97;34.16;100026.63;4442288;32;33764;-57
2023/03/18 02:23:35;;;;;;;;;;;;;;;23.96;34.17;100020.34;4469668;32;33787;-59
2023/03/18 02:26:35;;;;;;;5.32;2.67;;;;;;;24.04;34.04;100013.75;4469156;32;33065;-58
2023/03/18 02:29:04;;;;;;;5.55;2.42;;;;;;;23.98;34.14;100014.69;4457053;32;34664;-58
2023/03/18 02:31:35;;;;;;;7.90;2.60;;;;;;;23.94;34.21;100014.28;4443068;32;33828;-59
2023/03/18 02:34:05;;;;;;;7.55;2.70;;;;;;;23.92;34.24;100008.22;4455059;32;34575;-58
2023/03/18 02:36:34;;;;;;;4.55;2.55;;;;;;;23.90;34.27;100013.91;4442965;32;33121;-61
2023/03/18 02:39:04;;;;;;;6.85;2.90;;;;;;;23.90;34.25;100019.34;4443305;32;32596;-58
2023/03/18 02:41:34;;;;;;;8.32;2.95;;;;;;;23.91;34.25;100012.00;4455269;32;33726;-59
2023/03/18 02:44:02;;;;;;;4.60;2.80;;;;;;;23.88;34.29;100010.56;4454779;32;33897;-59
2023/03/18 02:46:45;;;;;;;5.57;2.78;;;;;;;23.90;34.26;100021.25;4469340;32;33357;-59
2023/03/18 02:49:13;;;;;;;9.07;3.12;;;;;;;23.87;34.30;100025.22;4469232;32;33990;-57
2023/03/18 02:51:40;;;;;;;6.07;2.40;;;;;;;23.85;34.35;100016.47;4469265;32;33705;-59
2023/03/18 02:54:13;;;;;;;4.97;2.65;;;;;;;23.85;34.37;100019.19;4469002;32;33823;-58
2023/03/18 02:56:41;;;;;;;6.00;2.70;;;;;;;23.85;34.40;100021.09;4468672;32;33832;-59
2023/03/18 02:59:10;;;;;;;5.32;2.55;;;;;;;23.85;34.38;100018.34;4469163;32;34672;-58
2023/03/18 03:01:37;;;;;;;3.60;2.47;;;;;;;23.84;34.39;100016.69;4454694;32;34452;-59
2023/03/18 03:04:06;;;;;;;5.70;2.95;;;;;;;23.83;34.41;100015.03;4455054;32;33954;-58
2023/03/18 03:06:34;;;;;;;5.32;2.40;;;;;;;23.82;34.40;100014.19;4466215;32;34156;-60
2023/03/18 03:09:04;;;;;;;6.80;2.78;;;;;;;23.81;34.42;100017.97;4467491;32;32665;-60
2023/03/18 03:11:34;;;;;;;4.03;2.67;;;;;;;23.81;34.43;100022.59;4455109;32;33829;-60
2023/03/18 03:14:03;;;;;;;5.20;3.00;;;;;;;23.80;34.44;100013.56;4454397;32;33899;-60
2023/03/18 03:16:31;;;;;;;4.57;2.65;;;;;;;23.79;34.43;100011.91;4469090;32;33377;-60
2023/03/18 03:18:59;;;;;;;5.07;2.80;;;;;;;23.79;34.43;100019.25;4468578;32;34816;-60
2023/03/18 03:21:26;;;;;;;5.10;2.22;;;;;;;23.77;34.43;100010.47;4468934;32;33958;-59
2023/03/18 03:23:54;;;;;;;4.78;2.85;;;;;;;23.77;34.46;100018.62;4468687;32;34547;-61
2023/03/18 03:26:22;;;;;;;4.32;2.37;;;;;;;23.78;34.47;100028.47;4468557;32;33026;-60
2023/03/18 03:28:50;;;;;;;6.68;2.70;;;;;;;23.76;34.47;100022.41;4468596;32;34677;-60
2023/03/18 03:31:19;;;;;;;5.90;2.83;;;;;;;23.76;34.54;100023.25;4455090;32;34097;-60
2023/03/18 03:33:46;;;;;;;3.97;2.28;;;;;;;23.78;34.55;100028.47;4454115;32;33596;-60
2023/03/18 03:36:15;;;;;;;6.10;2.65;;;;;;;23.75;34.57;100029.75;4468678;32;33894;-60
2023/03/18 03:38:43;;;;;;;3.95;2.30;;;;;;;23.74;34.62;100030.00;4468557;32;33793;-60
2023/03/18 03:41:11;;;;;;;5.78;2.28;;;;;;;23.73;34.64;100031.03;4468577;32;34437;-61
2023/03/18 03:43:40;;;;;;;4.28;2.50;;;;;;;23.73;34.64;100033.75;4454639;32;33794;-60
2023/03/18 03:46:08;;;;;;;4.45;2.50;;;;;;;23.73;34.64;100031.03;4454311;32;33512;-60
2023/03/18 03:48:37;;;;;;;4.28;2.60;;;;;;;23.73;34.66;100036.47;4442282;32;33957;-59
2023/03/18 03:51:05;;;;;;;4.57;2.40;;;;;;;23.72;34.66;100043.81;4468581;32;33864;-60
2023/03/18 03:53:34;;;;;;;5.00;2.65;;;;;;;23.72;34.64;100046.53;4468635;32;33763;-61
2023/03/18 03:56:03;;;;;;;6.18;3.08;;;;;;;23.72;34.71;100040.28;4468813;32;32646;-60
2023/03/18 03:58:30;;;;;;;5.85;2.35;;;;;;;23.72;34.70;100034.81;4468518;32;34142;-61
2023/03/18 04:00:58;;;;;;;6.12;2.45;;;;;;;23.70;34.70;100034.22;4467843;32;34525;-59
2023/03/18 04:03:27;;;;;;;3.87;2.25;;;;;;;23.71;34.70;100039.44;4468474;32;34533;-60
2023/03/18 04:05:55;;;;;;;5.53;2.70;;;;;;;23.70;34.70;100037.78;4454160;32;34180;-60
2023/03/18 04:08:23;;;;;;;3.72;2.22;;;;;;;23.70;34.70;100043.22;4468347;32;33917;-60
2023/03/18 04:10:50;;;;;;;4.82;2.53;;;;;;;23.70;34.71;100034.22;4468735;32;34728;-60
2023/03/18 04:13:18;;;;;;;5.50;2.80;;;;;;;23.68;34.69;100042.59;4468503;32;33943;-60
2023/03/18 04:15:46;;;;;;;7.00;2.37;;;;;;;23.67;34.72;100043.66;4465461;32;33225;-60
2023/03/18 04:18:15;;;;;;;7.32;2.90;;;;;;;23.66;34.70;100042.84;4468577;32;33759;-60
2023/03/18 04:20:43;;;;;;;6.97;2.70;;;;;;;23.67;34.51;100038.22;4454549;32;34669;-60
2023/03/18 04:23:13;;;;;;;6.55;2.58;;;;;;;23.65;34.10;100038.44;4468444;32;33515;-60
2023/03/18 04:25:41;;;;;;;3.60;2.30;;;;;;;23.64;34.11;100034.06;4467942;32;33433;-60
2023/03/18 04:28:09;;;;;;;5.70;2.28;;;;;;;23.63;34.21;100047.84;4460284;32;33948;-57
2023/03/18 04:30:36;;;;;;;8.07;2.47;;;;;;;23.60;34.27;100049.16;4452933;32;33989;-58
2023/03/18 04:33:05;;;;;;;7.35;2.70;;;;;;;23.61;34.29;100048.06;4464881;32;33980;-58
2023/03/18 04:35:32;;;;;;;6.50;2.85;;;;;;;23.62;34.33;100043.47;4452140;32;33164;-59
2023/03/18 04:38:00;;;;;;;6.40;2.42;;;;;;;23.61;34.35;100045.34;4452143;32;34314;-60
2023/03/18 04:40:28;;;;;;;5.65;2.65;;;;;;;23.60;34.37;100049.16;4452498;32;34063;-59
2023/03/18 04:42:56;;;;;;;4.93;2.70;;;;;;;23.61;34.39;100049.97;4451809;32;34548;-58
2023/03/18 04:45:24;;;;;;;4.35;2.33;;;;;;;23.59;34.44;100055.62;4451907;32;33894;-59
2023/03/18 04:47:53;;;;;;;5.10;2.53;;;;;;;23.60;34.46;100053.75;4452401;32;33537;-59
2023/03/18 04:50:20;;;;;;;5.60;2.60;;;;;;;23.61;34.47;100052.69;4451940;32;33895;-59
2023/03/18 04:52:48;;;;;;;4.47;2.50;;;;;;;23.60;34.50;100062.75;4438382;32;34556;-57
2023/03/18 04:55:19;;;;;;;4.87;2.45;;;;;;;23.58;34.52;100053.97;4459567;32;33462;-60
2023/03/18 04:57:47;;;;;;;5.12;2.45;;;;;;;23.59;34.54;100060.25;4467589;32;34765;-58
2023/03/18 05:00:20;;;;;;;7.15;2.35;;;;;;;23.58;34.55;100055.84;4440594;32;33022;-58
2023/03/18 05:02:48;;;;;;;5.50;2.28;;;;;;;23.58;34.58;100064.84;4467515;32;33419;-59
2023/03/18 05:05:17;;;;;;;9.57;2.67;;;;;;;23.58;34.57;100066.75;4467576;32;34076;-59
2023/03/18 05:07:44;;;;;;;5.72;2.70;;;;;;;23.57;34.56;100068.63;4441431;32;33646;-61
2023/03/18 05:10:12;;;;;;;4.47;2.40;;;;;;;23.58;34.59;100066.75;4467978;32;34790;-60
2023/03/18 05:12:40;;;;;;;5.57;2.35;;;;;;;23.57;34.60;100075.97;4467622;32;33906;-60
2023/03/18 05:15:10;;;;;;;7.82;2.70;;;;;;;23.56;34.61;100075.16;4468102;32;32990;-60
2023/03/18 05:17:41;;;;;;;9.30;2.60;;;;;;;23.55;34.61;100065.31;4454135;32;34605;-61
2023/03/18 05:20:09;;;;;;;7.22;2.60;;;;;;;23.55;34.63;100075.34;4453850;32;33786;-61
2023/03/18 05:22:37;;;;;;;5.78;3.00;;;;;;;23.55;34.64;100075.34;4453041;32;34725;-61
2023/03/18 05:25:06;;;;;;;4.15;2.50;;;;;;;23.53;34.65;100072.84;4467519;32;33361;-60
2023/03/18 05:27:34;;;;;;;4.97;2.05;;;;;;;23.53;34.65;100080.19;4453735;32;34021;-61
2023/03/18 05:30:03;;;;;;;6.65;2.85;;;;;;;23.53;34.66;100081.03;4467374;32;34456;-60
2023/03/18 05:32:32;;;;;;;6.05;2.37;;;;;;;23.53;34.65;100081.03;4467603;32;34586;-60
2023/03/18 05:35:00;;;;;;;4.18;2.20;;;;;;;23.53;34.63;100081.03;4467287;32;33242;-58
2023/03/18 05:37:28;;;;;;;14.35;2.55;;;;;;;23.52;34.66;100082.09;4466549;32;33779;-59
2023/03/18 05:39:56;;;;;;;5.50;2.20;;;;;;;23.51;34.67;100096.78;4454417;32;33549;-59
2023/03/18 05:42:24;;;;;;;5.78;2.67;;;;;;;23.50;34.67;100089.66;4469541;32;33724;-60
2023/03/18 05:44:53;;;;;;;5.78;2.30;;;;;;;23.51;34.68;100096.78;4469335;32;34127;-60
2023/03/18 05:47:21;;;;;;;5.12;2.00;;;;;;;23.50;34.69;100094.25;4469403;32;33518;-61
2023/03/18 05:49:49;;;;;;;5.25;2.60;;;;;;;23.51;34.68;100098.66;4469339;32;34727;-58
2023/03/18 05:52:16;;;;;;;5.30;2.60;;;;;;;23.49;34.69;100098.84;4469388;32;34510;-61
2023/03/18 05:54:44;;;;;;;4.85;2.25;;;;;;;23.47;34.70;100095.53;4469242;32;32908;-60
2023/03/18 05:57:14;;;;;;;6.57;2.45;;;;;;;23.46;34.73;100102.03;4469537;32;34001;-60
2023/03/18 05:59:42;;;;;;;8.13;2.47;;;;;;;23.46;34.74;100095.75;4469660;32;34731;-60
2023/03/18 06:02:11;;;;;;;5.78;2.20;;;;;;;23.46;34.74;100101.22;4455428;32;34638;-60
2023/03/18 06:04:39;;;;;;;4.62;2.53;;;;;;;23.44;34.77;100101.41;4469403;32;33157;-60
2023/03/18 06:07:07;;;;;;;12.50;2.42;;;;;;;23.43;34.77;100108.75;4469605;32;34761;-60
2023/03/18 06:09:34;;;;;;;4.82;2.40;;;;;;;23.44;34.79;100109.59;4469256;32;34582;-59
2023/03/18 06:12:02;;;;;;;4.22;2.15;;;;;;;23.44;34.76;100106.84;4466389;32;34631;-60
2023/03/18 06:14:30;;;;;;;4.00;2.53;;;;;;;23.43;34.80;100114.19;4460035;32;34272;-60
2023/03/18 06:16:58;;;;;;;3.70;1.95;;;;;;;23.42;34.81;100111.69;4441574;32;33844;-61
2023/03/18 06:19:29;;;;;;;5.50;2.28;;;;;;;23.42;34.81;100111.69;4453511;32;34789;-61
2023/03/18 06:21:57;;;;;;;4.37;2.20;;;;;;;23.41;34.81;100113.59;4468254;32;34647;-61
2023/03/18 06:24:25;;;;;;;6.07;2.67;;;;;;;23.40;34.83;100114.63;4467936;32;33086;-60
2023/03/18 06:26:54;;;;;;;4.60;2.37;;;;;;;23.41;34.84;100108.16;4468243;32;32954;-57
2023/03/18 06:29:21;;;;;;;5.70;2.53;;;;;;;23.40;34.81;100105.63;4462446;32;33890;-59
2023/03/18 06:31:49;;;;;;;4.03;2.30;;;;;;;23.39;34.87;100106.69;4460285;32;34563;-61
2023/03/18 06:34:18;;;;;;;6.07;2.17;;;;;;;23.39;34.89;100115.69;4461677;32;33955;-58
2023/03/18 06:36:45;;;;;;;5.97;2.70;;;;;;;23.40;34.94;100121.97;4460610;32;33838;-59
2023/03/18 06:39:13;;;;;;;4.68;2.08;;;;;;;23.38;34.98;100130.34;4462523;32;33584;-60
2023/03/18 06:41:42;;;;;;;4.68;2.40;;;;;;;23.39;34.99;100134.75;4460303;32;33972;-59
2023/03/18 06:44:14;;;;;;;4.65;2.22;;;;;;;23.38;34.99;100132.25;4457417;32;33266;-61
2023/03/18 06:46:41;;;;;;;6.15;2.42;;;;;;;23.39;35.00;100136.63;4453454;32;34839;-57
2023/03/18 06:49:11;;;;;;;5.72;2.70;;;;;;;23.37;34.69;100134.12;4461763;32;33893;-59
2023/03/18 06:51:40;;;;;;;4.15;2.30;;;;;;;23.38;34.42;100137.69;4468639;32;34250;-58
2023/03/18 06:54:08;;;;;;;6.40;2.70;;;;;;;23.35;34.44;100138.13;4441101;32;33441;-59
2023/03/18 06:56:37;;;;;;;6.40;2.50;;;;;;;23.35;34.45;100136.22;4468309;32;33624;-60
2023/03/18 06:59:06;;;;;;;4.18;2.12;;;;;;;23.34;34.47;100140.00;4441034;32;34007;-57
2023/03/18 07:01:35;;;;;;;4.30;2.20;;;;;;;23.35;34.48;100138.13;4461924;32;34802;-60
2023/03/18 07:04:05;;;;;;;5.12;2.40;;;;;;;23.33;34.51;100137.50;4467759;32;34278;-60
2023/03/18 07:06:33;;;;;;;4.18;2.20;;;;;;;23.33;34.52;100137.50;4468377;32;33994;-56
2023/03/18 07:09:00;;;;;;;5.10;2.20;;;;;;;23.33;34.55;100137.50;4468182;32;33908;-55
2023/03/18 07:11:28;;;;;;;5.20;2.55;;;;;;;23.34;34.54;100136.47;4468719;32;33919;-61
2023/03/18 07:13:56;;;;;;;3.28;1.95;;;;;;;23.33;34.58;100140.25;4461687;32;32997;-58
2023/03/18 07:16:24;;;;;;;5.07;2.37;;;;;;;23.31;34.61;100137.72;4458025;32;34879;-55
2023/03/18 07:18:52;;;;;;;5.53;2.62;;;;;;;23.32;34.67;100138.56;4459435;32;33999;-58
2023/03/18 07:21:19;;;;;;;5.82;2.60;;;;;;;23.32;34.71;100141.31;4461027;32;34437;-59
2023/03/18 07:23:48;;;;;;;4.12;2.12;;;;;;;23.31;34.72;100137.72;4455284;32;33491;-59
2023/03/18 07:26:17;;;;;;;3.65;2.42;;;;;;;23.31;34.72;100137.72;4453003;32;33996;-59
2023/03/18 07:28:44;;;;;;;4.28;2.20;;;;;;;23.31;34.75;100142.31;4439239;32;34682;-60
2023/03/18 07:31:12;;;;;;;4.75;2.30;;;;;;;23.31;34.75;100137.72;4453399;32;34491;-55
2023/03/18 07:33:40;;;;;;;4.85;2.40;;;;;;;23.31;34.80;100136.88;4462166;32;33020;-59
2023/03/18 07:36:08;;;;;;;3.55;2.00;;;;;;;23.32;34.82;100144.03;4467061;32;33680;-55
2023/03/18 07:38:36;;;;;;;4.75;2.87;;;;;;;23.31;34.83;100145.87;4467199;32;35003;-58
2023/03/18 07:41:03;;;;;;;3.60;2.25;;;;;;;23.30;34.83;100146.94;4453229;32;34674;-58
2023/03/18 07:43:31;;;;;;;5.95;2.42;;;;;;;23.29;34.89;100150.72;4467835;32;33200;-60
2023/03/18 07:45:59;;;;;;;10.55;2.47;;;;;;;23.29;34.94;100155.34;4468437;32;34752;-56
2023/03/18 07:48:26;;;;;;;8.13;2.35;;;;;;;23.29;34.91;100158.87;4452656;32;33318;-57
2023/03/18 07:50:54;;;;;;;5.15;2.25;;;;;;;23.29;34.93;100158.06;4452987;32;33597;-60
2023/03/18 07:53:22;;;;;;;4.62;2.42;;;;;;;23.29;34.94;100163.50;4455450;32;33424;-62
2023/03/18 07:55:49;;;;;;;5.65;2.47;;;;;;;23.26;35.01;100167.47;4457710;32;33831;-60
2023/03/18 07:58:16;;;;;;;4.82;2.83;;;;;;;23.27;35.01;100157.41;4468029;32;33877;-65
2023/03/18 08:00:44;;;;;;;19.10;4.87;;;;;;;23.27;34.83;100174.62;4452175;32;32933;-64
2023/03/18 08:03:13;;;;;;;20.73;4.85;;;;;;;23.28;31.99;100157.22;4465502;32;33325;-58
2023/03/18 08:05:40;;;;;;;14.55;4.47;;;;;;;23.20;30.58;100160.19;4457989;32;33849;-58
2023/03/18 08:08:08;;;;;;;10.63;3.72;;;;;;;23.20;31.70;100159.34;4468515;32;33897;-58
2023/03/18 08:10:36;;;;;;;9.75;3.92;;;;;;;23.18;32.74;100162.31;4467338;32;33533;-59
2023/03/18 08:13:04;;;;;;;10.32;4.00;;;;;;;23.19;33.12;100163.13;4467308;32;33917;-60
2023/03/18 08:15:31;;;;;;;12.55;3.67;;;;;;;23.20;33.21;100164.81;4468395;32;33809;-58
2023/03/18 08:18:00;;;;;;;8.80;3.50;;;;;;;23.21;33.25;100152.84;4468261;32;34245;-57
2023/03/18 08:20:27;;;;;;;7.05;3.28;;;;;;;23.19;33.33;100160.41;4454500;32;33258;-57
2023/03/18 08:22:55;;;;;;;6.95;3.30;;;;;;;23.20;33.28;100152.03;4453886;32;34144;-55
2023/03/18 08:25:23;;;;;;;6.47;3.12;;;;;;;23.21;33.22;100161.03;4438828;32;33883;-59
2023/03/18 08:27:51;;;;;;;7.57;3.10;;;;;;;23.21;33.22;100158.28;4438740;32;34768;-58
2023/03/18 08:30:19;;;;;;;6.18;3.12;;;;;;;23.22;33.21;100157.25;4452416;32;34533;-59
2023/03/18 08:32:47;;;;;;;6.75;3.08;;;;;;;23.22;33.19;100151.78;4452854;32;33352;-57
2023/03/18 08:35:14;;;;;;;10.38;3.15;;;;;;;23.22;33.19;100157.25;4452818;32;33478;-56
2023/03/18 08:37:42;;;;;;;7.97;3.30;;;;;;;23.22;33.15;100163.50;4452731;32;34014;-57
2023/03/18 08:40:10;;;;;;;6.72;3.30;;;;;;;23.23;33.15;100157.03;4452674;32;34162;-59
2023/03/18 08:42:38;;;;;;;8.45;3.37;;;;;;;23.23;33.10;100150.75;4452431;32;32627;-59
2023/03/18 08:45:06;;;;;;;6.53;3.30;;;;;;;23.24;33.08;100149.72;4438458;32;34774;-58
2023/03/18 08:47:33;;;;;;;7.28;3.25;;;;;;;23.24;33.11;100150.53;4452645;32;34697;-59
2023/03/18 08:50:01;;;;;;;9.07;3.25;;;;;;;23.25;33.15;100154.09;4452637;32;33600;-59
2023/03/18 08:52:29;;;;;;;7.03;3.15;;;;;;;23.26;33.17;100150.31;4452704;32;33433;-57
2023/03/18 08:54:57;;;;;;;5.82;2.85;;;;;;;23.26;33.25;100147.59;4438594;32;34792;-59
2023/03/18 08:57:26;;;;;;;7.12;3.00;;;;;;;23.26;33.30;100144.88;4438554;32;33259;-57
2023/03/18 08:59:54;;;;;;;4.75;2.72;;;;;;;23.28;33.36;100142.78;4452370;32;33909;-55
2023/03/18 09:02:22;;;;;;;6.47;2.97;;;;;;;23.28;33.39;100145.50;4452456;32;33479;-58
2023/03/18 09:04:50;;;;;;;7.85;3.03;;;;;;;23.29;33.46;100147.16;4451218;32;34013;-58
2023/03/18 09:07:17;;;;;;;7.15;2.60;;;;;;;23.28;33.54;100146.34;4452094;32;33730;-59
2023/03/18 09:09:45;;;;;;;8.05;2.80;;;;;;;23.29;33.56;100148.00;4452301;32;34600;-53
2023/03/18 09:12:13;;;;;;;5.55;2.50;;;;;;;23.31;33.58;100151.31;4454531;32;33247;-55
2023/03/18 09:14:42;;;;;;;6.72;3.03;;;;;;;23.31;33.60;100153.22;4465407;32;33971;-58
2023/03/18 09:17:10;;;;;;;5.40;2.83;;;;;;;23.30;33.61;100144.22;4453435;32;34636;-58
2023/03/18 09:19:38;;;;;;;6.50;2.90;;;;;;;23.33;33.59;100137.50;4465876;32;33577;-57
2023/03/18 09:22:05;;;;;;;9.65;3.55;;;;;;;23.33;33.58;100142.97;4467267;32;33398;-60
2023/03/18 09:24:33;;;;;;;6.25;3.20;;;;;;;23.34;33.58;100140.00;4453546;32;33987;-57
2023/03/18 09:27:01;;;;;;;8.93;2.65;;;;;;;23.34;33.61;100140.00;4467441;32;34019;-56
2023/03/18 09:29:28;;;;;;;8.80;2.90;;;;;;;23.36;33.62;100139.78;4467038;32;34612;-59
2023/03/18 09:31:56;;;;;;;10.68;3.22;;;;;;;23.35;33.64;100132.69;4466834;32;33452;-59
2023/03/18 09:34:24;;;;;;;11.10;3.50;;;;;;;23.34;33.65;100137.28;4465923;32;33625;-61
2023/03/18 09:36:51;;;;;;;7.50;2.95;;;;;;;23.34;33.65;100131.84;4465641;32;34447;-60
2023/03/18 09:39:19;;;;;;;6.20;2.90;;;;;;;23.34;33.67;100128.28;4465853;32;33931;-60
2023/03/18 09:42:05;;;;;;;7.62;3.28;;;;;;;23.33;33.68;100132.91;4452680;32;34682;-60
2023/03/18 09:44:34;;;;;;;9.00;3.10;;;;;;;23.33;33.68;100135.63;4466419;32;34703;-60
2023/03/18 09:47:10;;;;;;;7.35;2.62;;;;;;;23.32;33.68;100130.41;4453436;32;33296;-60
2023/03/18 09:49:48;;;;;;;15.80;2.70;;;;;;;23.29;33.63;100128.94;4467291;32;34531;-60
2023/03/18 09:52:42;;;;;;;7.20;3.37;;;;;;;23.31;33.54;100126.00;4441133;32;33152;-60
2023/03/18 09:55:28;;;;;;;8.10;2.90;;;;;;;23.29;33.37;100122.66;4467279;32;34710;-60
2023/03/18 09:58:00;;;;;;;9.32;2.92;;;;;;;23.29;33.30;100130.84;4453207;32;33535;-59
2023/03/18 10:00:32;;;;;;;8.20;3.33;;;;;;;23.27;33.27;100128.34;4453496;32;34630;-60
2023/03/18 10:03:05;;;;;;;8.90;3.10;;;;;;;23.26;33.20;100129.38;4440777;32;32556;-60
2023/03/18 10:05:43;;;;;;;7.00;3.30;;;;;;;23.26;33.14;100123.91;4454816;32;33190;-94
2023/03/18 10:08:19;;;;;;;7.95;2.80;;;;;;;23.25;33.09;100118.69;4469496;32;33716;-86
2023/03/18 10:10:47;;;;;;;6.93;3.12;;;;;;;23.25;33.09;100115.97;4443699;32;34038;-95
2023/03/18 10:13:32;;;;;;;7.68;3.28;;;;;;;23.24;33.07;100112.44;4442707;32;34125;-88
2023/03/18 10:16:01;;;;;;;7.93;3.30;;;;;;;23.25;33.05;100114.09;4455397;32;32818;-95
2023/03/18 10:18:33;;;;;;;6.28;2.97;;;;;;;23.23;33.09;100113.50;4469518;32;34087;-92
2023/03/18 10:21:00;;;;;;;6.87;2.90;;;;;;;23.22;33.08;100100.06;4443224;32;34181;-93
2023/03/18 10:23:48;;;;;;;5.65;2.92;;;;;;;23.22;33.12;100110.97;4469590;32;33372;-87
2023/03/18 10:26:20;;;;;;;8.32;3.05;;;;;;;23.22;33.12;100100.06;4471200;32;34242;-95
2023/03/18 10:29:12;;;;;;;7.90;3.40;;;;;;;23.21;33.13;100095.69;4457275;32;34304;-94
2023/03/18 10:31:58;;;;;;;7.20;3.33;;;;;;;23.21;33.14;100101.13;4427333;32;33798;-94
2023/03/18 10:35:15;;;;;;;7.93;3.08;;;;;;;23.21;33.16;100098.41;4440429;32;33316;-94
2023/03/18 10:38:25;;;;;;;7.80;3.08;;;;;;;23.19;33.17;100097.81;4425732;32;33521;-94
2023/03/18 10:40:53;;;;;;;8.90;3.47;;;;;;;23.19;33.16;100098.63;4439138;32;34886;-94
2023/03/18 10:43:23;;;;;;;7.00;2.65;;;;;;;23.16;33.21;100102.63;4439697;32;33739;-88
2023/03/18 10:45:59;;;;;;;9.88;3.20;;;;;;;23.13;33.19;100097.63;4427432;32;33449;-93
2023/03/18 10:48:46;;;;;;;6.18;2.92;;;;;;;23.14;33.13;100093.00;4442632;32;34417;-94
2023/03/18 10:51:35;;;;;;;7.55;3.17;;;;;;;23.13;33.07;100084.00;4428613;32;34057;-94
2023/03/18 10:54:33;;;;;;;5.18;2.90;;;;;;;23.13;33.05;100091.34;4443329;32;33841;-95
2023/03/18 11:00:04;;;;;;;5.28;3.10;;;;;;;23.08;32.85;100083.84;4392727;27;20154;-69
2023/03/18 11:02:34;;;;;;;6.25;3.05;;;;;;;23.06;32.88;100077.75;4363763;32;33573;-66
2023/03/18 11:05:04;;;;;;;4.85;2.95;;;;;;;23.05;32.80;100073.38;4363563;32;33644;-69
2023/03/18 11:07:32;;;;;;;7.45;3.40;;;;;;;23.05;32.67;100065.22;4363525;32;34510;-67
2023/03/18 11:10:12;;;;;;;5.65;3.10;;;;;;;23.05;32.60;100072.53;4363387;32;33782;-70
2023/03/18 11:13:01;;;;;;;6.20;2.85;;;;;;;23.04;32.52;100058.09;4355113;32;34061;-69
2023/03/18 11:15:35;;;;;;;7.55;3.70;;;;;;;23.03;32.44;100063.75;4363150;32;34044;-67
2023/03/18 11:18:03;;;;;;;6.78;3.30;;;;;;;23.01;32.38;100060.41;4363921;32;33017;-67
2023/03/18 11:20:41;;;;;;;8.48;3.75;;;;;;;23.00;32.29;100054.16;4363249;32;32913;-67
2023/03/18 11:23:19;;;;;;;7.40;3.10;;;;;;;23.00;32.24;100059.59;4364550;32;33772;-66
2023/03/18 11:25:47;;;;;;;6.70;3.00;;;;;;;23.00;32.13;100059.59;4363704;32;33826;-67
2023/03/18 11:28:22;;;;;;;6.82;2.97;;;;;;;22.98;32.08;100050.78;4363457;32;33179;-69
2023/03/18 11:30:51;;;;;;;7.45;3.40;;;;;;;22.97;32.03;100045.56;4363467;32;34318;-69
2023/03/18 11:33:22;;;;;;;8.50;3.05;;;;;;;22.96;32.01;100038.47;4362600;32;33921;-72
2023/03/18 11:35:54;;;;;;;4.85;2.83;;;;;;;22.96;31.97;100035.75;4361562;32;34074;-67
2023/03/18 11:38:29;;;;;;;6.40;3.25;;;;;;;22.95;31.97;100036.81;4363107;32;32949;-68
2023/03/18 11:41:16;;;;;;;5.80;3.15;;;;;;;22.96;31.92;100030.31;4350714;32;34036;-68